sensor_id;sensor_type;location;lat;lon;timestamp;pressure;altitude;pressure_sealevel;temperature;humidity
72721;BME280;60835;50.974;10.322;2023-03-22T00:00:08;97005.19;;;8.33;100.00
72721;BME280;60835;50.974;10.322;2023-03-22T00:02:40;96982.31;;;8.26;100.00
72721;BME280;60835;50.974;10.322;2023-03-22T00:05:07;96973.94;;;8.22;100.00
72721;BME280;60835;50.974;10.322;2023-03-22T00:07:34;96955.00;;;8.19;100.00
72721;BME280;60835;50.974;10.322;2023-03-22T00:10:04;96980.19;;;8.21;100.00
72721;BME280;60835;50.974;10.322;2023-03-22T00:12:30;96963.38;;;8.30;100.00
72721;BME280;60835;50.974;10.322;2023-03-22T00:14:57;96966.84;;;8.23;100.00
72721;BME280;60835;50.974;10.322;2023-03-22T00:17:25;96960.84;;;8.60;100.00
72721;BME280;60835;50.974;10.322;2023-03-22T00:19:52;96966.03;;;8.68;100.00
72721;BME280;60835;50.974;10.322;2023-03-22T00:22:19;96971.25;;;8.90;100.00
72721;BME280;60835;50.974;10.322;2023-03-22T00:24:47;96985.34;;;8.83;100.00
72721;BME280;60835;50.974;10.322;2023-03-22T00:27:13;97010.00;;;8.90;100.00
72721;BME280;60835;50.974;10.322;2023-03-22T00:29:40;97019.91;;;8.88;100.00
72721;BME280;60835;50.974;10.322;2023-03-22T00:32:06;97045.47;;;8.87;100.00
72721;BME280;60835;50.974;10.322;2023-03-22T00:34:33;97036.16;;;8.77;100.00
72721;BME280;60835;50.974;10.322;2023-03-22T00:37:00;97048.84;;;8.96;100.00
72721;BME280;60835;50.974;10.322;2023-03-22T00:39:27;97061.75;;;8.91;100.00
72721;BME280;60835;50.974;10.322;2023-03-22T00:41:53;97096.91;;;9.06;100.00
72721;BME280;60835;50.974;10.322;2023-03-22T00:44:20;97077.22;;;8.94;100.00
72721;BME280;60835;50.974;10.322;2023-03-22T00:46:46;97094.69;;;8.95;100.00
72721;BME280;60835;50.974;10.322;2023-03-22T00:49:13;97107.94;;;9.09;100.00
72721;BME280;60835;50.974;10.322;2023-03-22T00:51:39;97117.03;;;9.07;100.00
72721;BME280;60835;50.974;10.322;2023-03-22T00:54:06;97120.13;;;9.10;100.00
72721;BME280;60835;50.974;10.322;2023-03-22T00:56:32;97116.41;;;9.19;100.00
72721;BME280;60835;50.974;10.322;2023-03-22T00:58:59;97122.66;;;9.04;100.00
72721;BME280;60835;50.974;10.322;2023-03-22T01:01:26;97121.31;;;9.08;100.00
72721;BME280;60835;50.974;10.322;2023-03-22T01:03:53;97116.66;;;9.10;100.00
72721;BME280;60835;50.974;10.322;2023-03-22T01:06:20;97117.06;;;8.99;100.00
72721;BME280;60835;50.974;10.322;2023-03-22T01:08:46;97098.31;;;8.94;100.00
72721;BME280;60835;50.974;10.322;2023-03-22T01:11:16;97102.91;;;9.00;100.00
72721;BME280;60835;50.974;10.322;2023-03-22T01:13:43;97100.44;;;8.98;100.00
72721;BME280;60835;50.974;10.322;2023-03-22T01:16:11;97098.63;;;8.99;100.00
72721;BME280;60835;50.974;10.322;2023-03-22T01:18:38;97080.03;;;8.92;100.00
72721;BME280;60835;50.974;10.322;2023-03-22T01:21:05;97085.50;;;8.91;100.00
72721;BME280;60835;50.974;10.322;2023-03-22T01:23:32;97096.97;;;8.98;100.00
72721;BME280;60835;50.974;10.322;2023-03-22T01:25:59;97077.22;;;8.94;100.00
72721;BME280;60835;50.974;10.322;2023-03-22T01:28:27;97084.13;;;8.95;100.00
72721;BME280;60835;50.974;10.322;2023-03-22T01:30:54;97073.66;;;8.87;100.00
72721;BME280;60835;50.974;10.322;2023-03-22T01:33:21;97071.72;;;8.81;100.00
72721;BME280;60835;50.974;10.322;2023-03-22T01:35:47;97069.38;;;8.86;100.00
72721;BME280;60835;50.974;10.322;2023-03-22T01:38:14;97045.00;;;8.84;100.00
72721;BME280;60835;50.974;10.322;2023-03-22T01:40:40;97054.13;;;8.96;100.00
72721;BME280;60835;50.974;10.322;2023-03-22T01:43:12;97035.78;;;8.80;100.00
72721;BME280;60835;50.974;10.322;2023-03-22T01:45:47;97044.28;;;8.90;100.00
72721;BME280;60835;50.974;10.322;2023-03-22T01:50:57;97037.81;;;8.92;100.00
72721;BME280;60835;50.974;10.322;2023-03-22T01:53:24;97039.00;;;8.90;100.00
72721;BME280;60835;50.974;10.322;2023-03-22T01:55:53;97013.59;;;8.74;100.00
72721;BME280;60835;50.974;10.322;2023-03-22T01:58:20;97007.13;;;8.77;100.00
72721;BME280;60835;50.974;10.322;2023-03-22T02:00:48;97030.47;;;8.88;100.00
72721;BME280;60835;50.974;10.322;2023-03-22T02:03:21;97022.97;;;8.77;100.00
72721;BME280;60835;50.974;10.322;2023-03-22T02:05:50;97033.38;;;8.93;100.00
72721;BME280;60835;50.974;10.322;2023-03-22T02:08:16;97027.81;;;8.88;100.00
72721;BME280;60835;50.974;10.322;2023-03-22T02:10:43;97022.25;;;8.83;100.00
72721;BME280;60835;50.974;10.322;2023-03-22T02:16:23;97026.06;;;8.80;100.00
72721;BME280;60835;50.974;10.322;2023-03-22T02:25:52;97027.19;;;8.86;100.00
72721;BME280;60835;50.974;10.322;2023-03-22T02:28:47;97011.91;;;8.81;100.00
72721;BME280;60835;50.974;10.322;2023-03-22T02:34:39;97017.69;;;8.77;100.00
72721;BME280;60835;50.974;10.322;2023-03-22T02:45:43;96993.25;;;8.83;100.00
72721;BME280;60835;50.974;10.322;2023-03-22T02:48:12;96992.06;;;8.71;100.00
72721;BME280;60835;50.974;10.322;2023-03-22T02:50:54;97001.88;;;8.77;100.00
72721;BME280;60835;50.974;10.322;2023-03-22T02:53:44;96997.03;;;8.66;100.00
72721;BME280;60835;50.974;10.322;2023-03-22T02:56:30;96991.44;;;8.61;100.00
72721;BME280;60835;50.974;10.322;2023-03-22T02:59:02;96987.25;;;8.51;100.00
72721;BME280;60835;50.974;10.322;2023-03-22T03:01:38;96980.69;;;8.47;100.00
72721;BME280;60835;50.974;10.322;2023-03-22T03:04:08;96959.59;;;8.47;100.00
72721;BME280;60835;50.974;10.322;2023-03-22T03:06:40;96949.00;;;8.55;100.00
72721;BME280;60835;50.974;10.322;2023-03-22T03:09:13;96945.31;;;8.42;100.00
72721;BME280;60835;50.974;10.322;2023-03-22T03:11:48;96922.22;;;8.21;100.00
72721;BME280;60835;50.974;10.322;2023-03-22T03:14:31;96916.50;;;8.18;100.00
72721;BME280;60835;50.974;10.322;2023-03-22T03:19:36;96905.44;;;8.22;100.00
72721;BME280;60835;50.974;10.322;2023-03-22T03:27:40;96910.69;;;8.30;100.00
72721;BME280;60835;50.974;10.322;2023-03-22T03:30:19;96902.31;;;8.19;100.00
72721;BME280;60835;50.974;10.322;2023-03-22T03:32:53;96876.25;;;8.09;100.00
72721;BME280;60835;50.974;10.322;2023-03-22T03:35:27;96900.81;;;8.24;100.00
72721;BME280;60835;50.974;10.322;2023-03-22T03:38:00;96884.31;;;8.30;100.00
72721;BME280;60835;50.974;10.322;2023-03-22T03:40:31;96885.25;;;8.37;100.00
72721;BME280;60835;50.974;10.322;2023-03-22T03:43:01;96882.44;;;8.39;100.00
72721;BME280;60835;50.974;10.322;2023-03-22T03:45:28;96840.34;;;8.08;100.00
72721;BME280;60835;50.974;10.322;2023-03-22T03:47:58;96898.13;;;8.32;100.00
72721;BME280;60835;50.974;10.322;2023-03-22T03:50:26;96900.28;;;8.29;100.00
72721;BME280;60835;50.974;10.322;2023-03-22T03:52:54;96878.16;;;8.38;100.00
72721;BME280;60835;50.974;10.322;2023-03-22T03:55:22;96879.28;;;8.43;100.00
72721;BME280;60835;50.974;10.322;2023-03-22T03:57:49;96900.00;;;8.46;100.00
72721;BME280;60835;50.974;10.322;2023-03-22T04:00:16;96907.28;;;8.44;100.00
72721;BME280;60835;50.974;10.322;2023-03-22T04:02:43;96908.91;;;8.45;100.00
72721;BME280;60835;50.974;10.322;2023-03-22T04:05:11;96904.31;;;8.39;100.00
72721;BME280;60835;50.974;10.322;2023-03-22T04:07:38;96909.59;;;8.39;100.00
72721;BME280;60835;50.974;10.322;2023-03-22T04:10:06;96897.53;;;8.45;100.00
72721;BME280;60835;50.974;10.322;2023-03-22T04:12:32;96914.22;;;8.37;100.00
72721;BME280;60835;50.974;10.322;2023-03-22T04:14:59;96916.72;;;8.39;100.00
72721;BME280;60835;50.974;10.322;2023-03-22T04:17:26;96890.50;;;8.37;100.00
72721;BME280;60835;50.974;10.322;2023-03-22T04:19:55;96886.31;;;8.28;100.00
72721;BME280;60835;50.974;10.322;2023-03-22T04:22:22;96906.81;;;8.41;100.00
72721;BME280;60835;50.974;10.322;2023-03-22T04:24:50;96877.88;;;8.33;100.00
72721;BME280;60835;50.974;10.322;2023-03-22T04:27:17;96903.69;;;8.37;100.00
72721;BME280;60835;50.974;10.322;2023-03-22T04:29:43;96886.91;;;8.38;100.00
72721;BME280;60835;50.974;10.322;2023-03-22T04:32:17;96884.97;;;8.32;100.00
72721;BME280;60835;50.974;10.322;2023-03-22T04:34:44;96873.66;;;8.46;100.00
72721;BME280;60835;50.974;10.322;2023-03-22T04:37:12;96868.25;;;8.40;100.00
72721;BME280;60835;50.974;10.322;2023-03-22T04:39:40;96874.00;;;8.43;100.00
72721;BME280;60835;50.974;10.322;2023-03-22T04:42:07;96867.44;;;8.39;100.00
72721;BME280;60835;50.974;10.322;2023-03-22T04:44:34;96861.25;;;8.32;100.00
72721;BME280;60835;50.974;10.322;2023-03-22T04:47:00;96838.53;;;8.31;100.00
72721;BME280;60835;50.974;10.322;2023-03-22T04:49:27;96828.22;;;8.22;100.00
72721;BME280;60835;50.974;10.322;2023-03-22T04:51:54;96846.75;;;8.36;100.00
72721;BME280;60835;50.974;10.322;2023-03-22T04:54:22;96855.56;;;8.43;100.00
72721;BME280;60835;50.974;10.322;2023-03-22T04:56:49;96852.09;;;8.43;100.00
72721;BME280;60835;50.974;10.322;2023-03-22T04:59:16;96863.63;;;8.42;100.00
72721;BME280;60835;50.974;10.322;2023-03-22T05:01:49;96867.91;;;8.43;100.00
72721;BME280;60835;50.974;10.322;2023-03-22T05:04:17;96847.44;;;8.30;100.00
72721;BME280;60835;50.974;10.322;2023-03-22T05:06:44;96854.25;;;8.39;100.00
72721;BME280;60835;50.974;10.322;2023-03-22T05:09:12;96853.31;;;8.55;100.00
72721;BME280;60835;50.974;10.322;2023-03-22T05:11:39;96853.09;;;8.42;100.00
72721;BME280;60835;50.974;10.322;2023-03-22T05:14:07;96841.09;;;8.39;100.00
72721;BME280;60835;50.974;10.322;2023-03-22T05:16:34;96832.00;;;8.27;100.00
72721;BME280;60835;50.974;10.322;2023-03-22T05:19:01;96840.66;;;8.36;100.00
72721;BME280;60835;50.974;10.322;2023-03-22T05:21:29;96822.78;;;8.23;100.00
72721;BME280;60835;50.974;10.322;2023-03-22T05:24:01;96823.44;;;8.25;100.00
72721;BME280;60835;50.974;10.322;2023-03-22T05:26:28;96808.78;;;8.23;100.00
72721;BME280;60835;50.974;10.322;2023-03-22T05:28:55;96820.75;;;8.33;100.00
72721;BME280;60835;50.974;10.322;2023-03-22T05:31:22;96767.97;;;8.04;100.00
72721;BME280;60835;50.974;10.322;2023-03-22T05:33:50;96807.97;;;8.22;100.00
72721;BME280;60835;50.974;10.322;2023-03-22T05:36:18;96800.38;;;8.27;100.00
72721;BME280;60835;50.974;10.322;2023-03-22T05:38:46;96798.06;;;8.24;100.00
72721;BME280;60835;50.974;10.322;2023-03-22T05:41:13;96799.66;;;8.33;100.00
72721;BME280;60835;50.974;10.322;2023-03-22T05:43:40;96789.84;;;8.27;100.00
72721;BME280;60835;50.974;10.322;2023-03-22T05:46:10;96801.63;;;8.31;100.00
72721;BME280;60835;50.974;10.322;2023-03-22T05:48:38;96802.03;;;8.28;100.00
72721;BME280;60835;50.974;10.322;2023-03-22T05:51:10;96801.34;;;8.26;100.00
72721;BME280;60835;50.974;10.322;2023-03-22T05:53:38;96794.47;;;8.40;100.00
72721;BME280;60835;50.974;10.322;2023-03-22T05:56:05;96799.31;;;8.36;100.00
72721;BME280;60835;50.974;10.322;2023-03-22T05:58:35;96806.84;;;8.39;100.00
72721;BME280;60835;50.974;10.322;2023-03-22T06:01:10;96764.81;;;8.09;100.00
72721;BME280;60835;50.974;10.322;2023-03-22T06:03:38;96743.09;;;8.07;100.00
72721;BME280;60835;50.974;10.322;2023-03-22T06:06:05;96783.69;;;8.49;100.00
72721;BME280;60835;50.974;10.322;2023-03-22T06:08:36;96795.13;;;8.56;100.00
72721;BME280;60835;50.974;10.322;2023-03-22T06:11:05;96785.31;;;8.50;100.00
72721;BME280;60835;50.974;10.322;2023-03-22T06:13:32;96791.78;;;8.63;100.00
72721;BME280;60835;50.974;10.322;2023-03-22T06:16:00;96804.59;;;8.66;100.00
72721;BME280;60835;50.974;10.322;2023-03-22T06:18:28;96812.59;;;8.72;100.00
72721;BME280;60835;50.974;10.322;2023-03-22T06:20:55;96815.41;;;8.71;100.00
72721;BME280;60835;50.974;10.322;2023-03-22T06:23:23;96838.50;;;8.98;100.00
72721;BME280;60835;50.974;10.322;2023-03-22T06:25:51;96849.03;;;9.12;100.00
72721;BME280;60835;50.974;10.322;2023-03-22T06:28:24;96842.66;;;9.22;100.00
72721;BME280;60835;50.974;10.322;2023-03-22T06:30:55;96921.97;;;9.49;100.00
72721;BME280;60835;50.974;10.322;2023-03-22T06:33:22;96949.16;;;9.64;100.00
72721;BME280;60835;50.974;10.322;2023-03-22T06:35:48;97015.25;;;9.86;100.00
72721;BME280;60835;50.974;10.322;2023-03-22T06:38:15;97066.25;;;10.01;100.00
72721;BME280;60835;50.974;10.322;2023-03-22T06:40:42;97110.19;;;10.16;100.00
72721;BME280;60835;50.974;10.322;2023-03-22T06:43:08;97143.06;;;9.99;100.00
72721;BME280;60835;50.974;10.322;2023-03-22T06:45:35;97171.06;;;10.23;100.00
72721;BME280;60835;50.974;10.322;2023-03-22T06:48:01;97203.25;;;10.26;100.00
72721;BME280;60835;50.974;10.322;2023-03-22T06:50:31;97205.88;;;10.26;100.00
72721;BME280;60835;50.974;10.322;2023-03-22T06:52:57;97266.69;;;10.41;100.00
72721;BME280;60835;50.974;10.322;2023-03-22T06:55:24;97299.50;;;10.47;100.00
72721;BME280;60835;50.974;10.322;2023-03-22T06:57:50;97293.78;;;10.43;100.00
72721;BME280;60835;50.974;10.322;2023-03-22T07:00:17;97235.19;;;10.17;100.00
72721;BME280;60835;50.974;10.322;2023-03-22T07:02:44;97417.38;;;10.64;100.00
72721;BME280;60835;50.974;10.322;2023-03-22T07:05:11;97437.50;;;11.31;100.00
72721;BME280;60835;50.974;10.322;2023-03-22T07:07:39;97484.53;;;11.29;100.00
72721;BME280;60835;50.974;10.322;2023-03-22T07:10:06;97449.38;;;11.35;100.00
72721;BME280;60835;50.974;10.322;2023-03-22T07:12:33;97577.78;;;12.63;100.00
72721;BME280;60835;50.974;10.322;2023-03-22T07:15:00;97682.25;;;12.91;100.00
72721;BME280;60835;50.974;10.322;2023-03-22T07:17:27;97783.50;;;13.17;100.00
72721;BME280;60835;50.974;10.322;2023-03-22T07:19:53;97762.81;;;12.69;100.00
72721;BME280;60835;50.974;10.322;2023-03-22T07:22:20;97874.78;;;13.31;100.00
72721;BME280;60835;50.974;10.322;2023-03-22T07:24:48;97883.53;;;12.88;100.00
72721;BME280;60835;50.974;10.322;2023-03-22T07:27:23;97942.13;;;13.53;100.00
72721;BME280;60835;50.974;10.322;2023-03-22T07:29:50;97812.84;;;13.30;100.00
72721;BME280;60835;50.974;10.322;2023-03-22T07:32:18;98028.84;;;14.04;100.00
72721;BME280;60835;50.974;10.322;2023-03-22T07:34:45;98012.94;;;14.25;100.00
72721;BME280;60835;50.974;10.322;2023-03-22T07:37:12;98026.97;;;13.39;100.00
72721;BME280;60835;50.974;10.322;2023-03-22T07:39:38;98033.72;;;14.15;100.00
72721;BME280;60835;50.974;10.322;2023-03-22T07:42:05;98119.59;;;15.87;100.00
72721;BME280;60835;50.974;10.322;2023-03-22T07:44:32;98097.91;;;14.41;100.00
72721;BME280;60835;50.974;10.322;2023-03-22T07:46:58;98162.03;;;15.81;100.00
72721;BME280;60835;50.974;10.322;2023-03-22T07:49:25;98181.63;;;15.67;100.00
72721;BME280;60835;50.974;10.322;2023-03-22T07:51:52;98214.31;;;14.98;100.00
72721;BME280;60835;50.974;10.322;2023-03-22T07:54:18;98172.69;;;14.46;100.00
72721;BME280;60835;50.974;10.322;2023-03-22T07:56:58;98159.56;;;14.59;100.00
72721;BME280;60835;50.974;10.322;2023-03-22T07:59:24;98141.78;;;14.16;100.00
72721;BME280;60835;50.974;10.322;2023-03-22T08:01:51;98160.25;;;14.83;100.00
72721;BME280;60835;50.974;10.322;2023-03-22T08:04:18;98186.69;;;15.41;100.00
72721;BME280;60835;50.974;10.322;2023-03-22T08:06:46;98185.59;;;15.50;100.00
72721;BME280;60835;50.974;10.322;2023-03-22T08:09:13;98230.75;;;16.56;100.00
72721;BME280;60835;50.974;10.322;2023-03-22T08:11:40;98228.09;;;16.07;100.00
72721;BME280;60835;50.974;10.322;2023-03-22T08:14:07;98185.44;;;15.37;100.00
72721;BME280;60835;50.974;10.322;2023-03-22T08:16:34;98203.09;;;14.67;100.00
72721;BME280;60835;50.974;10.322;2023-03-22T08:19:01;98203.25;;;14.80;100.00
72721;BME280;60835;50.974;10.322;2023-03-22T08:21:28;98167.81;;;14.79;100.00
72721;BME280;60835;50.974;10.322;2023-03-22T08:23:55;98219.38;;;15.64;100.00
72721;BME280;60835;50.974;10.322;2023-03-22T08:26:23;98207.63;;;15.59;100.00
72721;BME280;60835;50.974;10.322;2023-03-22T08:28:49;98182.66;;;15.66;100.00
72721;BME280;60835;50.974;10.322;2023-03-22T08:31:17;98230.97;;;17.09;100.00
72721;BME280;60835;50.974;10.322;2023-03-22T08:33:46;98242.72;;;16.73;100.00
72721;BME280;60835;50.974;10.322;2023-03-22T08:36:16;98259.97;;;16.09;100.00
72721;BME280;60835;50.974;10.322;2023-03-22T08:38:43;98280.75;;;16.41;100.00
72721;BME280;60835;50.974;10.322;2023-03-22T08:41:11;98278.88;;;17.03;100.00
72721;BME280;60835;50.974;10.322;2023-03-22T08:43:38;98300.03;;;16.98;100.00
72721;BME280;60835;50.974;10.322;2023-03-22T08:46:04;98282.50;;;15.28;100.00
72721;BME280;60835;50.974;10.322;2023-03-22T08:48:31;98254.06;;;17.23;100.00
72721;BME280;60835;50.974;10.322;2023-03-22T08:50:59;98305.47;;;17.25;100.00
72721;BME280;60835;50.974;10.322;2023-03-22T08:53:27;98301.78;;;17.26;100.00
72721;BME280;60835;50.974;10.322;2023-03-22T08:55:54;98316.22;;;18.24;100.00
72721;BME280;60835;50.974;10.322;2023-03-22T08:58:29;98258.53;;;17.16;100.00
72721;BME280;60835;50.974;10.322;2023-03-22T09:00:56;98305.94;;;18.74;100.00
72721;BME280;60835;50.974;10.322;2023-03-22T09:03:22;98319.06;;;17.90;100.00
72721;BME280;60835;50.974;10.322;2023-03-22T09:05:50;98301.97;;;17.78;100.00
72721;BME280;60835;50.974;10.322;2023-03-22T09:08:17;98296.94;;;17.49;100.00
72721;BME280;60835;50.974;10.322;2023-03-22T09:10:48;98290.44;;;17.71;100.00
72721;BME280;60835;50.974;10.322;2023-03-22T09:13:18;98262.16;;;16.54;100.00
72721;BME280;60835;50.974;10.322;2023-03-22T09:15:45;98279.63;;;17.38;100.00
72721;BME280;60835;50.974;10.322;2023-03-22T09:18:13;98300.34;;;18.43;100.00
72721;BME280;60835;50.974;10.322;2023-03-22T09:20:39;98330.88;;;17.42;100.00
72721;BME280;60835;50.974;10.322;2023-03-22T09:23:07;98265.00;;;16.25;100.00
72721;BME280;60835;50.974;10.322;2023-03-22T09:25:33;98278.66;;;17.52;100.00
72721;BME280;60835;50.974;10.322;2023-03-22T09:28:00;98304.59;;;17.04;100.00
72721;BME280;60835;50.974;10.322;2023-03-22T09:30:27;98265.13;;;16.44;100.00
72721;BME280;60835;50.974;10.322;2023-03-22T09:32:54;98286.28;;;16.67;100.00
72721;BME280;60835;50.974;10.322;2023-03-22T09:35:21;98264.34;;;16.44;100.00
72721;BME280;60835;50.974;10.322;2023-03-22T09:37:48;98307.59;;;17.36;100.00
72721;BME280;60835;50.974;10.322;2023-03-22T09:40:15;98320.00;;;17.50;100.00
72721;BME280;60835;50.974;10.322;2023-03-22T09:42:45;98303.19;;;17.62;100.00
72721;BME280;60835;50.974;10.322;2023-03-22T09:45:17;98335.69;;;17.66;100.00
72721;BME280;60835;50.974;10.322;2023-03-22T09:47:50;98365.59;;;16.67;100.00
72721;BME280;60835;50.974;10.322;2023-03-22T09:50:30;98368.41;;;16.37;100.00
72721;BME280;60835;50.974;10.322;2023-03-22T09:53:12;98354.78;;;16.81;100.00
72721;BME280;60835;50.974;10.322;2023-03-22T09:56:02;98365.63;;;17.42;100.00
72721;BME280;60835;50.974;10.322;2023-03-22T10:01:24;98344.72;;;14.47;100.00
72721;BME280;60835;50.974;10.322;2023-03-22T10:06:31;98306.13;;;14.06;100.00
72721;BME280;60835;50.974;10.322;2023-03-22T10:11:50;98346.66;;;14.83;100.00
72721;BME280;60835;50.974;10.322;2023-03-22T10:14:47;98347.94;;;14.57;100.00
72721;BME280;60835;50.974;10.322;2023-03-22T10:17:24;98352.59;;;14.18;100.00
72721;BME280;60835;50.974;10.322;2023-03-22T10:20:02;98344.81;;;13.94;100.00
72721;BME280;60835;50.974;10.322;2023-03-22T10:22:41;98348.34;;;14.84;100.00
72721;BME280;60835;50.974;10.322;2023-03-22T10:25:15;98384.06;;;16.68;100.00
72721;BME280;60835;50.974;10.322;2023-03-22T10:27:43;98359.03;;;16.69;100.00
72721;BME280;60835;50.974;10.322;2023-03-22T10:30:21;98402.97;;;16.03;100.00
72721;BME280;60835;50.974;10.322;2023-03-22T10:32:58;98386.25;;;16.16;100.00
72721;BME280;60835;50.974;10.322;2023-03-22T10:35:26;98390.19;;;15.77;100.00
72721;BME280;60835;50.974;10.322;2023-03-22T10:37:57;98369.47;;;16.64;100.00
72721;BME280;60835;50.974;10.322;2023-03-22T10:40:27;98384.22;;;16.39;100.00
72721;BME280;60835;50.974;10.322;2023-03-22T10:42:58;98388.41;;;16.48;100.00
72721;BME280;60835;50.974;10.322;2023-03-22T10:45:29;98397.66;;;16.24;100.00
72721;BME280;60835;50.974;10.322;2023-03-22T10:48:04;98366.94;;;15.93;100.00
72721;BME280;60835;50.974;10.322;2023-03-22T10:50:35;98366.19;;;15.63;100.00
72721;BME280;60835;50.974;10.322;2023-03-22T10:53:27;98391.81;;;16.14;100.00
72721;BME280;60835;50.974;10.322;2023-03-22T10:55:55;98378.19;;;15.23;100.00
72721;BME280;60835;50.974;10.322;2023-03-22T10:58:28;98409.06;;;15.61;100.00
72721;BME280;60835;50.974;10.322;2023-03-22T11:00:57;98377.63;;;15.27;100.00
72721;BME280;60835;50.974;10.322;2023-03-22T11:06:10;98400.03;;;15.33;100.00
72721;BME280;60835;50.974;10.322;2023-03-22T11:08:47;98396.84;;;15.23;100.00
72721;BME280;60835;50.974;10.322;2023-03-22T11:11:35;98397.69;;;16.10;100.00
72721;BME280;60835;50.974;10.322;2023-03-22T11:14:19;98392.28;;;16.94;100.00
72721;BME280;60835;50.974;10.322;2023-03-22T11:16:51;98390.97;;;16.35;100.00
72721;BME280;60835;50.974;10.322;2023-03-22T11:19:24;98395.88;;;15.74;100.00
72721;BME280;60835;50.974;10.322;2023-03-22T11:21:53;98339.41;;;15.35;100.00
72721;BME280;60835;50.974;10.322;2023-03-22T11:24:24;98382.88;;;15.86;100.00
72721;BME280;60835;50.974;10.322;2023-03-22T11:27:02;98398.28;;;16.05;100.00
72721;BME280;60835;50.974;10.322;2023-03-22T11:29:38;98380.19;;;17.80;100.00
72721;BME280;60835;50.974;10.322;2023-03-22T11:32:19;98387.69;;;18.17;100.00
72721;BME280;60835;50.974;10.322;2023-03-22T11:34:46;98422.00;;;16.78;100.00
72721;BME280;60835;50.974;10.322;2023-03-22T11:37:16;98352.09;;;17.09;100.00
72721;BME280;60835;50.974;10.322;2023-03-22T11:39:46;98394.78;;;18.58;100.00
72721;BME280;60835;50.974;10.322;2023-03-22T11:42:20;98406.63;;;18.03;100.00
72721;BME280;60835;50.974;10.322;2023-03-22T11:44:46;98394.84;;;16.75;100.00
72721;BME280;60835;50.974;10.322;2023-03-22T11:47:13;98404.44;;;16.48;100.00
72721;BME280;60835;50.974;10.322;2023-03-22T11:49:47;98388.56;;;19.03;100.00
72721;BME280;60835;50.974;10.322;2023-03-22T11:52:17;98402.38;;;17.68;100.00
72721;BME280;60835;50.974;10.322;2023-03-22T11:54:45;98376.59;;;18.99;100.00
72721;BME280;60835;50.974;10.322;2023-03-22T11:57:15;98396.94;;;19.46;100.00
72721;BME280;60835;50.974;10.322;2023-03-22T11:59:53;98385.22;;;19.40;100.00
72721;BME280;60835;50.974;10.322;2023-03-22T12:02:24;98400.34;;;17.01;100.00
72721;BME280;60835;50.974;10.322;2023-03-22T12:04:58;98265.13;;;16.44;100.00
72721;BME280;60835;50.974;10.322;2023-03-22T12:07:28;98384.53;;;17.81;100.00
72721;BME280;60835;50.974;10.322;2023-03-22T12:10:06;98380.25;;;18.06;100.00
72721;BME280;60835;50.974;10.322;2023-03-22T12:12:40;98379.06;;;18.15;100.00
72721;BME280;60835;50.974;10.322;2023-03-22T12:15:16;98384.84;;;18.91;100.00
72721;BME280;60835;50.974;10.322;2023-03-22T12:20:25;98389.38;;;17.24;100.00
72721;BME280;60835;50.974;10.322;2023-03-22T12:22:55;98381.13;;;17.19;100.00
72721;BME280;60835;50.974;10.322;2023-03-22T12:25:26;98388.81;;;17.69;100.00
72721;BME280;60835;50.974;10.322;2023-03-22T12:27:56;98374.28;;;17.44;100.00
72721;BME280;60835;50.974;10.322;2023-03-22T12:30:30;98382.44;;;16.67;100.00
72721;BME280;60835;50.974;10.322;2023-03-22T12:33:18;98371.56;;;17.78;100.00
72721;BME280;60835;50.974;10.322;2023-03-22T12:35:49;98384.34;;;17.42;100.00
72721;BME280;60835;50.974;10.322;2023-03-22T12:40:52;98363.66;;;17.57;100.00
72721;BME280;60835;50.974;10.322;2023-03-22T12:46:05;98352.69;;;18.12;100.00
72721;BME280;60835;50.974;10.322;2023-03-22T12:51:33;98336.19;;;18.94;100.00
72721;BME280;60835;50.974;10.322;2023-03-22T12:54:00;98343.47;;;20.20;100.00
72721;BME280;60835;50.974;10.322;2023-03-22T12:56:42;98342.19;;;19.98;100.00
72721;BME280;60835;50.974;10.322;2023-03-22T12:59:15;98342.88;;;20.18;100.00
72721;BME280;60835;50.974;10.322;2023-03-22T13:01:53;98337.00;;;19.01;100.00
72721;BME280;60835;50.974;10.322;2023-03-22T13:25:26;98336.53;;;19.17;100.00
72721;BME280;60835;50.974;10.322;2023-03-22T13:27:59;98330.69;;;19.84;100.00
72721;BME280;60835;50.974;10.322;2023-03-22T13:30:35;98334.34;;;18.95;100.00
72721;BME280;60835;50.974;10.322;2023-03-22T13:33:18;98328.75;;;17.91;100.00
72721;BME280;60835;50.974;10.322;2023-03-22T13:35:50;98343.00;;;17.03;100.00
72721;BME280;60835;50.974;10.322;2023-03-22T13:38:23;98321.63;;;17.44;100.00
72721;BME280;60835;50.974;10.322;2023-03-22T13:41:06;98317.44;;;17.29;100.00
72721;BME280;60835;50.974;10.322;2023-03-22T13:46:26;98325.16;;;17.11;100.00
72721;BME280;60835;50.974;10.322;2023-03-22T13:51:32;98330.72;;;17.16;100.00
72721;BME280;60835;50.974;10.322;2023-03-22T13:59:18;98315.50;;;16.75;100.00
72721;BME280;60835;50.974;10.322;2023-03-22T14:01:51;98313.06;;;16.80;100.00
72721;BME280;60835;50.974;10.322;2023-03-22T14:04:24;98332.47;;;16.61;100.00
72721;BME280;60835;50.974;10.322;2023-03-22T14:07:07;98323.22;;;16.36;100.00
72721;BME280;60835;50.974;10.322;2023-03-22T14:09:48;98343.94;;;16.13;100.00
72721;BME280;60835;50.974;10.322;2023-03-22T14:12:24;98319.63;;;15.80;100.00
72721;BME280;60835;50.974;10.322;2023-03-22T14:14:56;98310.94;;;16.20;100.00
72721;BME280;60835;50.974;10.322;2023-03-22T14:17:33;98310.09;;;16.62;100.00
72721;BME280;60835;50.974;10.322;2023-03-22T14:20:04;98298.59;;;16.68;100.00
72721;BME280;60835;50.974;10.322;2023-03-22T14:22:38;98313.31;;;16.09;100.00
72721;BME280;60835;50.974;10.322;2023-03-22T14:25:06;98314.97;;;16.10;100.00